Electric City, Washington
Current Conditions -  °F | °C
As of 9:53 AM on Monday 22 Dec 2014 (Local Time) from KOMK Reporting Station
Clear Clear  
Wind Chill: 37°   Ceiling: Unl
Heat Index: 37°   Visibility: 10mi
Dew Point: 31°   Wind: 0mph
Humidity: 79%   Direction: NA
Pressure: 30.22"   Gusts: NA
Location:  47.93°N, 119.04°W
Report Text: KOMK 221753Z AUTO 00000KT 10SM CLR 03/M01 A3022 RMK AO2 SLP244 T00281006 10033 21033 53031
Loading
Personal Weather Stations






























Interactive Weather Map New forecast layout! Learn more

10-Day Weather Forecast

Advertisements
Track Severe Weather on mobile